Atkinson, Nebraska
Current Conditions -  °F | °C
As of 11:55 AM on Thursday 23 Oct 2014 (Local Time) from KONL Reporting Station
Clear Clear  
Wind Chill: 19°   Ceiling: Unl
Heat Index: 19°   Visibility: 10mi
Dew Point: 10°   Wind: 16mph
Humidity: 58%   Direction: 210°SSW
Pressure: 30.04"   Gusts: NA
Location:  42.53°N, 98.98°W
Report Text: KONL 231655Z AUTO 21014KT 10SM CLR 19/10 A3004 RMK AO2 T01880103
Loading
Personal Weather Stations






























Interactive Weather Map
Tropical Storm Tracking
New forecast layout! Learn more

10-Day Weather Forecast

Advertisements
Track Severe Weather on mobile